createdAt,value
2023-02-27T00:02:34.218Z,100309.56
2023-02-27T00:12:38.819Z,100311.09
2023-02-27T00:22:40.389Z,100303.06
2023-02-27T00:32:41.993Z,100305.56
2023-02-27T00:42:43.585Z,100305.25
2023-02-27T00:52:45.128Z,100306.63
2023-02-27T01:02:46.923Z,100310.13
2023-02-27T01:12:48.308Z,100309.31
2023-02-27T01:22:49.861Z,100303.78
2023-02-27T01:32:51.373Z,100297.59
2023-02-27T01:42:52.762Z,100297.59
2023-02-27T01:52:56.182Z,100299.94
2023-02-27T02:03:07.012Z,100299.78
2023-02-27T02:13:08.402Z,100302.25
2023-02-27T02:23:24.891Z,100293.34
2023-02-27T02:33:47.699Z,100277.19
2023-02-27T02:44:03.654Z,100293.28
2023-02-27T02:54:28.508Z,100289.19
2023-02-27T03:04:47.246Z,100296.09
2023-02-27T03:15:11.880Z,100303.38
2023-02-27T03:25:13.495Z,100302.78
2023-02-27T03:35:14.895Z,100308.81
2023-02-27T03:45:37.323Z,100310.66
2023-02-27T03:55:40.320Z,100303.25
2023-02-27T04:05:41.721Z,100314.53
2023-02-27T04:15:46.019Z,100331.16
2023-02-27T04:26:00.647Z,100325.75
2023-02-27T04:36:11.357Z,100317.94
2023-02-27T04:46:15.548Z,100330.53
2023-02-27T04:56:53.733Z,100334.41
2023-02-27T05:06:55.118Z,100349.34
2023-02-27T05:17:08.705Z,100347.91
2023-02-27T05:27:22.538Z,100359.16
2023-02-27T05:37:36.172Z,100366.00
2023-02-27T05:47:39.355Z,100371.06
2023-02-27T05:57:44.021Z,100372.41
2023-02-27T06:07:45.603Z,100384.97
2023-02-27T06:17:47.231Z,100397.03
2023-02-27T06:27:48.621Z,100401.22
2023-02-27T06:37:49.990Z,100402.09
2023-02-27T06:47:51.547Z,100418.31
2023-02-27T06:57:52.933Z,100424.72
2023-02-27T07:07:54.352Z,100422.75
2023-02-27T07:17:55.741Z,100424.47
2023-02-27T07:27:57.125Z,100442.22
2023-02-27T07:37:58.512Z,100442.75
2023-02-27T07:47:59.928Z,100448.59
2023-02-27T07:58:01.330Z,100463.44
2023-02-27T08:08:02.809Z,100455.53
2023-02-27T08:18:04.383Z,100459.69
2023-02-27T08:28:05.759Z,100469.88
2023-02-27T08:38:07.121Z,100469.97
2023-02-27T08:48:08.794Z,100471.53
2023-02-27T08:58:10.540Z,100481.03
2023-02-27T09:08:11.921Z,100475.56
2023-02-27T09:18:13.319Z,100476.00
2023-02-27T09:28:15.190Z,100479.94
2023-02-27T09:38:16.598Z,100481.97
2023-02-27T09:48:30.090Z,100482.69
2023-02-27T09:58:43.362Z,100485.13
2023-02-27T10:09:17.077Z,100490.47
2023-02-27T10:19:27.313Z,100495.13
2023-02-27T10:29:30.768Z,100493.72
2023-02-27T10:39:35.497Z,100498.78
2023-02-27T10:49:37.073Z,100503.22
2023-02-27T10:59:39.137Z,100491.13
2023-02-27T11:09:40.725Z,100482.94
2023-02-27T11:19:42.246Z,100474.75
2023-02-27T11:30:22.510Z,100468.53
2023-02-27T11:40:25.717Z,100454.28
2023-02-27T11:50:36.278Z,100446.25
2023-02-27T12:00:43.330Z,100434.00
2023-02-27T12:10:49.219Z,100425.28
2023-02-27T12:21:06.664Z,100411.84
2023-02-27T12:31:26.999Z,100399.94
2023-02-27T12:41:43.889Z,100389.56
2023-02-27T12:51:55.369Z,100385.84
2023-02-27T13:02:03.543Z,100380.31
2023-02-27T13:12:23.545Z,100387.53
2023-02-27T13:22:57.231Z,100377.13
2023-02-27T13:33:22.626Z,100378.28
2023-02-27T13:43:31.269Z,100374.59
2023-02-27T13:53:33.552Z,100383.13
2023-02-27T14:03:34.953Z,100377.09
2023-02-27T14:13:45.336Z,100377.44
2023-02-27T14:23:47.052Z,100392.34
2023-02-27T14:33:50.640Z,100378.03
2023-02-27T14:43:56.654Z,100376.19
2023-02-27T14:54:03.601Z,100370.28
2023-02-27T15:04:05.615Z,100386.03
2023-02-27T15:14:07.172Z,100379.09
2023-02-27T15:24:26.926Z,100388.78
2023-02-27T15:34:30.565Z,100390.25
2023-02-27T15:44:39.189Z,100407.00
2023-02-27T15:54:53.850Z,100405.28
2023-02-27T16:04:55.401Z,100414.28
2023-02-27T16:15:36.321Z,100432.97
2023-02-27T16:25:37.867Z,100438.28
2023-02-27T16:35:39.838Z,100441.06
2023-02-27T16:45:49.837Z,100441.56
2023-02-27T16:55:51.251Z,100448.16
2023-02-27T17:05:53.628Z,100459.50
2023-02-27T17:15:55.153Z,100471.44
2023-02-27T17:25:56.920Z,100482.75
2023-02-27T17:36:05.423Z,100486.63
2023-02-27T17:46:08.134Z,100501.00
2023-02-27T17:56:09.722Z,100500.22
2023-02-27T18:06:11.092Z,100511.38
2023-02-27T18:16:12.757Z,100512.00
2023-02-27T18:26:28.501Z,100518.88
2023-02-27T18:36:30.714Z,100513.59
2023-02-27T18:46:32.914Z,100514.44
2023-02-27T18:56:34.577Z,100510.97
2023-02-27T19:06:40.356Z,100501.72
2023-02-27T19:16:41.969Z,100507.06
2023-02-27T19:26:43.360Z,100509.63
2023-02-27T19:36:44.750Z,100499.66
2023-02-27T19:46:51.064Z,100501.38
2023-02-27T19:56:54.122Z,100501.44
2023-02-27T20:06:55.532Z,100499.44
2023-02-27T20:16:57.176Z,100503.81
2023-02-27T20:26:59.955Z,100520.75
2023-02-27T20:37:03.141Z,100505.50
2023-02-27T20:47:04.554Z,100519.91
2023-02-27T20:57:06.092Z,100525.50
2023-02-27T21:07:11.576Z,100523.41
2023-02-27T21:17:13.637Z,100521.66
2023-02-27T21:27:16.238Z,100529.25
2023-02-27T21:37:17.796Z,100516.38
2023-02-27T21:47:20.742Z,100523.69
2023-02-27T21:57:22.279Z,100530.94
2023-02-27T22:07:23.881Z,100515.59
2023-02-27T22:17:25.318Z,100513.84
2023-02-27T22:27:26.841Z,100516.44
2023-02-27T22:37:28.235Z,100527.88
2023-02-27T22:47:29.792Z,100533.97
2023-02-27T22:57:31.207Z,100555.53
2023-02-27T23:07:33.262Z,100546.91
2023-02-27T23:17:34.822Z,100553.75
2023-02-27T23:27:36.369Z,100563.78
2023-02-27T23:37:39.059Z,100568.25
2023-02-27T23:47:51.588Z,100576.91
2023-02-27T23:57:53.355Z,100570.81
